Weather at Camp Bastion Airport

Public forecast

Using degrees Celsius for public forecast. Weather courtesy of forecast.io.

Closest aviation weather report (METAR) to Camp Bastion Airport

Report is more than 6 hours old.

Closest report is Kandahar Airport, 85.5 nm (158.4 km) ESE. Retrieved 2020/11/24 15:55 UTC (2 months ago):

OAKN 241555Z AUTO 23002KT 6000 BR CLR 10/06 A3010 RMK AO2 SLP183 WND DATA ESTMD T00950062

Closest aviation forecast (TAF) to Camp Bastion Airport

Forecast is more than 12 hours old.

Closest forecast is Kandahar Airport, 85.5 nm (158.4 km) ESE. Retrieved 2021/01/26 07:09 UTC (2 days ago):

TAF TAF OAKN 260700Z 2607/2713 VRB06KT 9999 SKC QNH3012INS TX12/2611Z TNM04/2702Z